Dora Bend, Louisiana
Current Conditions -  °F | °C
As of 7:55 AM on Friday 24 Oct 2014 (Local Time) from KOPL Reporting Station
Clear Clear  
Wind Chill: 48°   Ceiling: Unl
Heat Index: 48°   Visibility: 7mi
Dew Point: 47°   Wind: 3mph
Humidity: 99%   Direction: 360°N
Pressure: 30.14"   Gusts: NA
Location:  30.9908°N, 92.0816°W
Report Text: KOPL 241255Z AUTO 36003KT 7SM CLR 09/09 A3014 RMK AO2 T00870085
Loading
Personal Weather Stations






























Interactive Weather Map
Tropical Storm Tracking
New forecast layout! Learn more

10-Day Weather Forecast

Advertisements
Track Severe Weather on mobile